map of BGF home
BGF - Airport
Location
City:  Bangui, Ombella-Mpoko (Ömbëlä-Pökö), Central African Republic
Name:M'Poko
ICAO:FEFF
IATA:BGF

Details
Type:Airport (Aerodrome, Airfield)
Use:Public/Civil, International (customs port of entry)
Latitude:4°23'55"N (4.398475)
Longitude:18°31'08"E (18.518786)
Datum:WGS 1984
Elevation:1208 ft (368 m)
Variation:1.15°E (WMM2015 magnetic declination)
0.12° annual change
Runways:1
Longest:8530 × 148 ft (2600 × 45 m), paved

Time
Time Zone:UTC+1
Local Time:

Weather
METAR:FEFF 210800Z 27002KT 6000 SCT020 26/21 Q1014 NOSIG
TAF:FEFF 210500Z 2106/2212 VRB02KT 3000 BR FEW005 FEW033CB
BECMG 2107/2109 9999 NSW BKN010
BECMG 2110/2111 BKN023 FEW040CB PROB40
TEMPO 2114/2118 TS

Related Locations
Nearby:
Farthest:PYE: 12041 mi / 19379 km
Penrhyn Island (Tongareva, Te Pitaka, Hararanga), CK

Find:

   beyond  
but within

Other Information
Maps:
NOTAMs:
Links:
Sources:

  
  • flag of Central African Republic
  

Sectional Chart

Flight Planning
at skyvector.com

Satellite Image

Google Maps Satellite view

 

Copyright © 2004-2019 Karl L. Swartz. All rights reserved.
The Great Circle Mapper name and logo are trademarks of the Great Circle Mapper.
All other trademarks mentioned herein belong to their respective owners.
Please see credits for attibutions and further copyright information.

  Follow gcmap on Facebook Follow gcmap on Twitter Follow gcmap on Google+ GCmap on LinkedIn

hCard Microformat

Geo Microformat